Time;durP1;ratioP1;P1;durP2;ratioP2;P2;SDS_P1;SDS_P2;PMS_P1;PMS_P2;Temp;Humidity;BMP_temperature;BMP_pressure;BME280_temperature;BME280_humidity;BME280_pressure;Samples;Min_cycle;Max_cycle;Signal;HPM_P1;HPM_P2
2023/03/02 00:00:25;;;;;;;14.68;8.15;;;5.20;99.90;;;;;;7401674;19;19927;-72
2023/03/02 00:02:54;;;;;;;14.57;9.23;;;4.70;99.90;;;;;;7404641;19;19941;-71
2023/03/02 00:05:23;;;;;;;17.25;10.20;;;4.60;99.90;;;;;;7404058;19;20295;-72
2023/03/02 00:07:53;;;;;;;14.10;8.85;;;4.70;99.90;;;;;;7404625;19;20380;-72
2023/03/02 00:10:25;;;;;;;15.27;9.20;;;4.70;99.90;;;;;;7405014;19;19914;-71
2023/03/02 00:12:54;;;;;;;14.35;8.77;;;4.40;99.90;;;;;;7401552;19;19915;-71
2023/03/02 00:15:23;;;;;;;19.33;9.23;;;5.50;99.90;;;;;;7403181;19;19926;-72
2023/03/02 00:17:52;;;;;;;17.58;10.25;;;4.60;99.90;;;;;;7403493;19;19937;-71
2023/03/02 00:20:21;;;;;;;16.42;10.05;;;4.50;99.90;;;;;;7406581;19;19930;-71
2023/03/02 00:22:50;;;;;;;18.65;10.30;;;5.40;99.90;;;;;;7405973;19;19933;-72
2023/03/02 00:25:20;;;;;;;17.58;9.73;;;4.50;99.90;;;;;;7406374;19;20378;-72
2023/03/02 00:28:08;;;;;;;17.95;9.93;;;4.40;99.90;;;;;;7403372;19;19978;-71
2023/03/02 00:30:57;;;;;;;18.60;10.18;;;5.20;99.90;;;;;;7406359;19;19914;-71
2023/03/02 00:33:28;;;;;;;20.80;9.70;;;5.30;99.90;;;;;;7401816;19;19994;-72
2023/03/02 00:35:57;;;;;;;19.17;10.25;;;5.50;99.90;;;;;;7402819;19;19931;-71
2023/03/02 00:38:27;;;;;;;20.25;10.52;;;3.70;99.90;;;;;;7402804;19;20654;-72
2023/03/02 00:40:58;;;;;;;21.90;10.35;;;4.60;99.90;;;;;;7405088;19;19923;-72
2023/03/02 00:43:29;;;;;;;18.40;10.27;;;4.00;99.90;;;;;;7401547;19;20257;-71
2023/03/02 00:45:59;;;;;;;20.45;10.13;;;4.50;99.90;;;;;;7403251;19;19930;-72
2023/03/02 00:48:28;;;;;;;20.00;10.20;;;4.40;99.90;;;;;;7403192;19;20303;-71
2023/03/02 00:50:57;;;;;;;21.17;11.07;;;4.30;99.90;;;;;;7405867;19;19938;-72
2023/03/02 00:53:28;;;;;;;19.77;11.25;;;3.60;99.90;;;;;;7401537;19;19926;-72
2023/03/02 00:55:57;;;;;;;21.08;11.65;;;4.50;99.90;;;;;;7403733;19;19946;-72
2023/03/02 00:58:30;;;;;;;21.92;11.85;;;3.60;99.90;;;;;;7402646;19;19914;-70
2023/03/02 01:01:00;;;;;;;21.92;11.50;;;4.10;99.90;;;;;;7404757;19;20538;-71
2023/03/02 01:03:29;;;;;;;21.27;11.43;;;4.20;99.90;;;;;;7403009;19;19910;-71
2023/03/02 01:05:59;;;;;;;21.60;10.98;;;3.50;99.90;;;;;;7402138;19;19924;-72
2023/03/02 01:08:28;;;;;;;21.10;10.65;;;3.90;99.90;;;;;;7403555;19;19919;-72
2023/03/02 01:11:00;;;;;;;23.20;11.65;;;4.20;99.90;;;;;;7405175;19;19922;-72
2023/03/02 01:13:31;;;;;;;22.58;11.38;;;4.30;99.90;;;;;;7401816;19;19922;-72
2023/03/02 01:16:04;;;;;;;22.20;11.50;;;4.70;99.90;;;;;;7402519;19;20059;-72
2023/03/02 01:18:37;;;;;;;25.23;11.63;;;4.50;99.90;;;;;;7402239;19;19925;-73
2023/03/02 01:21:07;;;;;;;23.83;11.98;;;3.50;99.90;;;;;;7404726;19;19956;-72
2023/03/02 01:23:37;;;;;;;21.02;10.55;;;4.90;99.90;;;;;;7402448;19;19925;-71
2023/03/02 01:26:06;;;;;;;20.20;11.40;;;4.10;99.90;;;;;;7401857;19;19925;-72
2023/03/02 01:28:38;;;;;;;24.02;11.32;;;4.60;99.90;;;;;;7405760;19;20359;-71
2023/03/02 01:31:07;;;;;;;19.20;11.50;;;3.60;99.90;;;;;;7404238;19;19965;-72
2023/03/02 01:33:36;;;;;;;20.30;10.57;;;4.70;99.90;;;;;;7401140;19;19946;-71
2023/03/02 01:36:08;;;;;;;21.50;10.80;;;4.20;99.90;;;;;;7403397;19;19990;-72
2023/03/02 01:38:37;;;;;;;18.25;9.68;;;3.00;99.90;;;;;;7404758;19;19927;-72
2023/03/02 01:41:11;;;;;;;19.42;10.05;;;3.50;99.90;;;;;;7404690;19;19949;-72
2023/03/02 01:43:43;;;;;;;20.02;10.05;;;3.90;99.90;;;;;;7400972;19;19914;-72
2023/03/02 01:46:17;;;;;;;19.40;9.60;;;4.20;99.90;;;;;;7404732;19;19911;-72
2023/03/02 01:48:49;;;;;;;19.35;9.80;;;4.50;99.90;;;;;;7402957;19;19919;-72
2023/03/02 01:51:21;;;;;;;21.48;11.52;;;4.50;99.90;;;;;;7401836;19;19919;-72
2023/03/02 01:53:51;;;;;;;;;;;3.90;99.90;;;;;;7401680;19;19915;-72
2023/03/02 01:56:25;;;;;;;22.35;11.07;;;4.30;99.90;;;;;;7398525;19;19938;-73
2023/03/02 01:59:02;;;;;;;21.70;11.40;;;3.90;99.90;;;;;;7403866;19;20352;-72
2023/03/02 02:01:33;;;;;;;21.42;11.30;;;3.00;99.90;;;;;;7401001;19;19926;-71
2023/03/02 02:04:03;;;;;;;21.55;10.85;;;3.20;99.90;;;;;;7402823;19;19978;-72
2023/03/02 02:06:38;;;;;;;24.35;11.90;;;4.30;99.90;;;;;;7401795;19;19918;-72
2023/03/02 02:09:10;;;;;;;22.48;11.00;;;3.00;99.90;;;;;;7397812;19;20367;-71
2023/03/02 02:12:00;;;;;;;28.20;13.07;;;3.70;99.90;;;;;;7401128;19;19933;-71
2023/03/02 02:14:31;;;;;;;25.60;12.00;;;3.00;99.90;;;;;;7400397;19;19993;-71
2023/03/02 02:17:00;;;;;;;26.02;12.82;;;;;;;;;;7400316;19;19914;-72
2023/03/02 02:19:45;;;;;;;24.35;11.70;;;3.00;99.90;;;;;;7402986;19;19906;-72
2023/03/02 02:22:16;;;;;;;24.42;12.40;;;4.40;99.90;;;;;;7403520;19;19922;-72
2023/03/02 02:24:51;;;;;;;26.10;12.23;;;2.50;99.90;;;;;;7400493;19;20365;-72
2023/03/02 02:27:32;;;;;;;29.02;13.43;;;3.20;99.90;;;;;;7400766;19;19922;-72
2023/03/02 02:30:04;;;;;;;30.15;13.02;;;2.90;99.90;;;;;;7401991;19;20019;-71
2023/03/02 02:32:38;;;;;;;29.25;13.38;;;4.20;99.90;;;;;;7399368;19;19929;-71
2023/03/02 02:35:14;;;;;;;31.15;13.98;;;2.90;99.90;;;;;;7399806;19;19925;-71
2023/03/02 02:37:45;;;;;;;33.42;15.02;;;4.30;99.90;;;;;;7403145;19;19922;-72
2023/03/02 02:40:19;;;;;;;30.88;13.25;;;4.40;99.90;;;;;;7400341;19;19915;-72
2023/03/02 02:42:54;;;;;;;31.95;14.45;;;3.70;99.90;;;;;;7399617;19;19923;-72
2023/03/02 02:45:26;;;;;;;36.15;16.35;;;2.90;99.90;;;;;;7401055;19;19943;-72
2023/03/02 02:47:57;;;;;;;35.15;14.50;;;3.60;99.90;;;;;;7399613;19;19926;-71
2023/03/02 02:50:29;;;;;;;34.95;15.75;;;2.70;99.90;;;;;;7403028;19;19930;-71
2023/03/02 02:53:05;;;;;;;34.00;15.05;;;3.80;99.90;;;;;;7402858;19;19925;-71
2023/03/02 02:55:36;;;;;;;37.30;14.82;;;2.70;99.90;;;;;;7399873;19;19933;-72
2023/03/02 02:58:21;;;;;;;35.47;15.80;;;3.80;99.90;;;;;;7402218;19;19982;-72
2023/03/02 03:00:52;;;;;;;36.45;15.43;;;4.30;99.90;;;;;;7399377;19;19947;-72
2023/03/02 03:03:32;;;;;;;40.70;16.52;;;3.20;99.90;;;;;;7402320;19;19926;-71
2023/03/02 03:06:03;;;;;;;33.20;15.75;;;4.20;99.90;;;;;;7403683;19;20387;-71
2023/03/02 03:08:57;;;;;;;35.78;15.60;;;3.60;99.90;;;;;;7403490;19;19922;-71
2023/03/02 03:11:28;;;;;;;37.53;15.75;;;2.50;99.90;;;;;;7405503;19;20263;-72
2023/03/02 03:14:07;;;;;;;38.08;15.00;;;3.30;99.90;;;;;;7406017;19;20293;-72
2023/03/02 03:16:38;;;;;;;35.65;15.52;;;2.60;99.90;;;;;;7405752;19;19914;-72
2023/03/02 03:19:14;;;;;;;38.30;17.00;;;3.30;99.90;;;;;;7409727;19;20009;-71
2023/03/02 03:21:52;;;;;;;40.63;15.48;;;3.10;99.90;;;;;;7405343;19;19939;-71
2023/03/02 03:24:21;;;;;;;41.20;14.93;;;3.80;99.90;;;;;;7406961;19;19925;-72
2023/03/02 03:26:51;;;;;;;39.85;17.42;;;3.60;99.90;;;;;;7404924;19;19911;-72
2023/03/02 03:29:25;;;;;;;40.80;16.20;;;2.40;99.90;;;;;;7408564;19;19942;-72
2023/03/02 03:31:55;;;;;;;37.40;16.38;;;3.70;99.90;;;;;;7405246;19;19918;-72
2023/03/02 03:34:26;;;;;;;51.30;17.92;;;2.70;99.90;;;;;;7403045;19;19989;-72
2023/03/02 03:37:00;;;;;;;48.72;18.13;;;3.70;99.90;;;;;;7405181;19;20341;-72
2023/03/02 03:39:30;;;;;;;45.53;17.30;;;3.00;99.90;;;;;;7405315;19;19948;-72
2023/03/02 03:42:00;;;;;;;46.67;17.35;;;2.40;99.90;;;;;;7404714;19;19918;-72
2023/03/02 03:44:32;;;;;;;47.10;16.60;;;3.10;99.90;;;;;;7405814;19;19942;-72
2023/03/02 03:47:01;;;;;;;41.25;16.58;;;3.90;99.90;;;;;;7403536;19;20267;-72
2023/03/02 03:49:30;;;;;;;41.08;15.52;;;3.80;99.90;;;;;;7404744;19;19937;-72
2023/03/02 03:51:59;;;;;;;39.63;16.33;;;2.60;99.90;;;;;;7405273;19;20527;-72
2023/03/02 03:54:28;;;;;;;38.60;16.48;;;3.10;99.90;;;;;;7402380;19;19942;-72
2023/03/02 03:56:57;;;;;;;34.83;14.95;;;3.30;99.90;;;;;;7405628;19;19986;-72
2023/03/02 03:59:27;;;;;;;40.70;15.65;;;3.20;99.90;;;;;;7404925;19;19926;-72
2023/03/02 04:02:02;;;;;;;44.22;16.00;;;2.60;99.90;;;;;;7404485;19;19915;-73
2023/03/02 04:04:35;;;;;;;42.47;17.48;;;3.20;99.90;;;;;;7404634;19;19914;-72
2023/03/02 04:07:05;;;;;;;36.42;14.60;;;3.10;99.90;;;;;;7404059;19;19942;-72
2023/03/02 04:09:36;;;;;;;41.33;16.10;;;3.10;99.90;;;;;;7403187;19;19922;-72
2023/03/02 04:12:07;;;;;;;38.47;15.85;;;3.30;99.90;;;;;;7403916;19;19926;-72
2023/03/02 04:14:36;;;;;;;36.38;14.57;;;2.10;99.90;;;;;;7402233;19;20284;-72
2023/03/02 04:17:08;;;;;;;41.90;16.42;;;3.30;99.90;;;;;;7406345;19;19923;-72
2023/03/02 04:19:37;;;;;;;38.65;14.75;;;3.60;99.90;;;;;;7403632;19;19915;-72
2023/03/02 04:22:06;;;;;;;40.55;15.18;;;3.20;99.90;;;;;;7407488;19;19922;-72
2023/03/02 04:24:35;;;;;;;38.25;16.67;;;2.30;99.90;;;;;;7404127;19;19914;-71
2023/03/02 04:27:05;;;;;;;36.05;14.38;;;3.30;99.90;;;;;;7404099;19;19925;-72
2023/03/02 04:29:34;;;;;;;35.15;14.63;;;3.00;99.90;;;;;;7403659;19;19978;-72
2023/03/02 04:32:03;;;;;;;31.92;14.32;;;3.60;99.90;;;;;;7403235;19;20553;-73
2023/03/02 04:34:36;;;;;;;34.47;14.35;;;2.60;99.90;;;;;;7401708;19;20344;-72
2023/03/02 04:37:06;;;;;;;35.55;15.65;;;2.50;99.90;;;;;;7406689;19;19939;-72
2023/03/02 04:39:35;;;;;;;34.00;13.93;;;3.70;99.90;;;;;;7402040;19;19978;-72
2023/03/02 04:42:04;;;;;;;31.83;13.55;;;2.10;99.90;;;;;;7402167;19;19914;-72
2023/03/02 04:44:33;;;;;;;31.70;13.63;;;3.10;99.90;;;;;;7404110;19;20290;-72
2023/03/02 04:47:02;;;;;;;30.00;13.93;;;3.10;99.90;;;;;;7407025;19;19919;-72
2023/03/02 04:49:31;;;;;;;30.08;13.18;;;3.50;99.90;;;;;;7404992;19;19914;-71
2023/03/02 04:52:07;;;;;;;28.75;12.90;;;3.70;99.90;;;;;;7403543;19;19919;-72
2023/03/02 04:54:36;;;;;;;;;;;3.50;99.90;;;;;;7406705;19;19918;-72
2023/03/02 04:57:07;;;;;;;28.92;12.68;;;2.20;99.90;;;;;;7403298;19;19919;-72
2023/03/02 04:59:36;;;;;;;29.08;13.43;;;3.70;99.90;;;;;;7402661;19;19911;-72
2023/03/02 05:02:05;;;;;;;35.20;14.07;;;2.40;99.90;;;;;;7402423;19;19929;-72
2023/03/02 05:04:34;;;;;;;26.15;12.05;;;2.30;99.90;;;;;;7404052;19;19935;-72
2023/03/02 05:07:08;;;;;;;;;;;3.10;99.90;;;;;;7405016;19;19929;-72
2023/03/02 05:09:37;;;;;;;24.63;10.45;;;3.00;99.90;;;;;;7401840;19;19939;-72
2023/03/02 05:12:07;;;;;;;29.80;11.95;;;2.50;99.90;;;;;;7401957;19;19942;-72
2023/03/02 05:14:36;;;;;;;22.25;10.57;;;2.50;99.90;;;;;;7403111;19;19929;-71
2023/03/02 05:17:10;;;;;;;24.27;11.02;;;2.50;99.90;;;;;;7402138;19;19914;-72
2023/03/02 05:19:39;;;;;;;25.92;11.65;;;;;;;;;;7402066;19;19977;-72
2023/03/02 05:22:11;;;;;;;22.27;11.40;;;2.20;99.90;;;;;;7402842;19;19926;-72
2023/03/02 05:24:40;;;;;;;26.00;12.35;;;3.40;99.90;;;;;;7402419;19;19938;-72
2023/03/02 05:27:09;;;;;;;29.77;13.07;;;3.50;99.90;;;;;;7401642;19;19946;-72
2023/03/02 05:29:38;;;;;;;32.08;11.55;;;3.70;99.90;;;;;;7404411;19;20348;-72
2023/03/02 05:32:09;;;;;;;33.22;10.88;;;3.50;99.90;;;;;;7401664;19;19926;-72
2023/03/02 05:34:38;;;;;;;25.65;10.43;;;2.10;99.90;;;;;;7400224;19;19918;-71
2023/03/02 05:37:14;;;;;;;22.60;11.25;;;2.30;99.90;;;;;;7401422;19;19914;-72
2023/03/02 05:39:43;;;;;;;21.27;9.65;;;3.00;99.90;;;;;;7402932;19;19922;-71
2023/03/02 05:42:12;;;;;;;18.90;9.13;;;2.40;99.90;;;;;;7400796;19;19919;-71
2023/03/02 05:44:42;;;;;;;18.92;9.32;;;;;;;;;;7402877;19;19923;-71
2023/03/02 05:47:10;;;;;;;23.63;10.45;;;2.00;99.90;;;;;;7402905;19;20523;-70
2023/03/02 05:49:39;;;;;;;19.17;9.95;;;2.20;99.90;;;;;;7401742;19;19957;-70
2023/03/02 05:52:08;;;;;;;22.20;10.45;;;2.00;99.90;;;;;;7400688;19;19929;-71
2023/03/02 05:54:40;;;;;;;16.50;9.20;;;3.10;99.90;;;;;;7401898;19;19919;-70
2023/03/02 05:57:09;;;;;;;23.52;9.93;;;2.90;99.90;;;;;;7403277;19;19924;-70
2023/03/02 05:59:38;;;;;;;22.58;9.48;;;3.00;99.90;;;;;;7403428;19;20280;-71
2023/03/02 06:02:07;;;;;;;25.85;9.85;;;3.20;99.90;;;;;;7401003;19;20305;-70
2023/03/02 06:04:42;;;;;;;20.65;10.38;;;;;;;;;;7401393;19;19944;-71
2023/03/02 06:07:11;;;;;;;22.83;11.15;;;3.40;99.90;;;;;;7404765;19;20266;-70
2023/03/02 06:09:43;;;;;;;24.33;10.10;;;2.60;99.90;;;;;;7399123;19;19915;-71
2023/03/02 06:12:12;;;;;;;;;;;2.60;99.90;;;;;;7402578;19;19925;-71
2023/03/02 06:14:41;;;;;;;17.50;9.18;;;3.00;99.90;;;;;;7402989;19;19915;-71
2023/03/02 06:17:10;;;;;;;26.23;9.27;;;1.90;99.90;;;;;;7400357;19;19935;-71
2023/03/02 06:19:39;;;;;;;20.60;9.88;;;2.00;99.90;;;;;;7400012;19;19932;-71
2023/03/02 06:22:08;;;;;;;25.23;10.13;;;2.20;99.90;;;;;;7400009;19;19914;-71
2023/03/02 06:24:37;;;;;;;18.58;9.27;;;2.90;99.90;;;;;;7399981;19;19919;-71
2023/03/02 06:27:09;;;;;;;20.98;10.45;;;3.00;99.90;;;;;;7399418;19;19962;-71
2023/03/02 06:29:38;;;;;;;19.85;10.07;;;1.50;99.90;;;;;;7400729;19;19982;-71
2023/03/02 06:32:09;;;;;;;21.77;10.60;;;2.40;99.90;;;;;;7402352;19;19915;-71
2023/03/02 06:34:38;;;;;;;27.10;10.93;;;1.70;99.90;;;;;;7398871;19;19915;-71
2023/03/02 06:37:07;;;;;;;22.50;10.57;;;2.50;99.90;;;;;;7399060;19;20040;-71
2023/03/02 06:39:36;;;;;;;18.63;8.55;;;1.60;99.90;;;;;;7399557;19;19925;-71
2023/03/02 06:42:06;;;;;;;24.42;10.15;;;2.70;99.90;;;;;;7403215;19;19919;-71
2023/03/02 06:44:37;;;;;;;23.67;9.68;;;2.80;99.90;;;;;;7405916;19;19919;-72
2023/03/02 06:47:08;;;;;;;24.27;10.65;;;1.50;99.90;;;;;;7408511;19;19979;-71
2023/03/02 06:49:38;;;;;;;21.05;10.65;;;2.00;99.90;;;;;;7406513;19;19922;-71
2023/03/02 06:52:09;;;;;;;22.00;11.05;;;2.60;99.90;;;;;;7404690;19;19941;-71
2023/03/02 06:54:39;;;;;;;23.70;10.55;;;1.60;99.90;;;;;;7402281;19;19923;-71
2023/03/02 06:57:08;;;;;;;27.33;10.98;;;1.90;99.90;;;;;;7407712;19;19922;-72
2023/03/02 06:59:40;;;;;;;22.48;10.50;;;2.50;99.90;;;;;;7406398;19;19922;-72
2023/03/02 07:02:11;;;;;;;28.88;10.18;;;2.40;99.90;;;;;;7405446;19;19919;-71
2023/03/02 07:04:41;;;;;;;22.33;10.93;;;2.00;99.90;;;;;;7405638;19;19915;-70
2023/03/02 07:07:10;;;;;;;26.23;9.55;;;3.10;99.90;;;;;;7404995;19;20374;-69
2023/03/02 07:09:39;;;;;;;24.02;10.65;;;;;;;;;;7406443;19;19919;-68
2023/03/02 07:12:08;;;;;;;24.45;11.82;;;1.70;99.90;;;;;;7404330;19;19922;-68
2023/03/02 07:14:40;;;;;;;19.50;10.10;;;2.50;99.90;;;;;;7404242;19;20024;-68
2023/03/02 07:17:10;;;;;;;22.27;11.35;;;1.70;99.90;;;;;;7404873;19;19942;-70
2023/03/02 07:19:40;;;;;;;21.58;11.05;;;2.50;99.90;;;;;;7404917;19;20343;-70
2023/03/02 07:22:09;;;;;;;21.00;11.10;;;3.10;99.90;;;;;;7404816;19;19927;-71
2023/03/02 07:24:38;;;;;;;25.88;11.38;;;2.80;99.90;;;;;;7408258;19;19982;-71
2023/03/02 07:27:07;;;;;;;21.42;10.82;;;2.80;99.90;;;;;;7409399;19;19930;-71
2023/03/02 07:29:36;;;;;;;20.30;10.48;;;2.50;99.90;;;;;;7404835;19;20336;-71
2023/03/02 07:32:11;;;;;;;21.85;10.10;;;2.30;99.90;;;;;;7405221;19;19928;-71
2023/03/02 07:34:41;;;;;;;20.67;10.13;;;3.20;99.90;;;;;;7403298;19;19922;-71
2023/03/02 07:37:10;;;;;;;22.30;9.77;;;2.10;99.90;;;;;;7405306;19;19925;-71
2023/03/02 07:39:39;;;;;;;21.15;9.38;;;2.40;99.90;;;;;;7404875;19;19925;-71
2023/03/02 07:42:10;;;;;;;21.75;10.50;;;3.20;99.90;;;;;;7403975;19;20344;-71
2023/03/02 07:44:40;;;;;;;25.13;10.50;;;2.80;99.90;;;;;;7404445;19;19923;-71
2023/03/02 07:47:12;;;;;;;25.88;10.85;;;2.40;99.90;;;;;;7404902;19;20267;-71
2023/03/02 07:49:42;;;;;;;25.95;10.80;;;2.40;99.90;;;;;;7404690;19;20344;-71
2023/03/02 07:52:11;;;;;;;25.10;10.95;;;3.00;99.90;;;;;;7403211;19;20277;-71
2023/03/02 07:54:40;;;;;;;20.17;9.68;;;;;;;;;;7403271;19;19986;-72
2023/03/02 07:57:16;;;;;;;20.58;10.55;;;2.50;99.90;;;;;;7404146;19;19929;-71
2023/03/02 07:59:46;;;;;;;22.63;10.52;;;2.90;99.90;;;;;;7404310;19;19918;-71
2023/03/02 08:02:21;;;;;;;25.42;11.05;;;2.00;99.90;;;;;;7406103;19;19926;-72
2023/03/02 08:04:51;;;;;;;20.45;9.32;;;2.00;99.90;;;;;;7404080;19;20006;-71
2023/03/02 08:07:22;;;;;;;20.48;9.48;;;2.20;99.90;;;;;;7401589;19;19922;-71
2023/03/02 08:09:52;;;;;;;22.70;9.68;;;3.30;99.90;;;;;;7401678;19;19946;-72
2023/03/02 08:12:22;;;;;;;23.45;9.80;;;;;;;;;;7405472;19;19923;-72
2023/03/02 08:14:51;;;;;;;21.85;9.98;;;2.50;99.90;;;;;;7402394;19;20255;-71
2023/03/02 08:17:23;;;;;;;19.90;8.65;;;2.10;99.90;;;;;;7403660;19;20372;-71
2023/03/02 08:19:53;;;;;;;21.80;9.25;;;3.10;99.90;;;;;;7403711;19;19918;-71
2023/03/02 08:22:22;;;;;;;19.55;9.15;;;2.20;99.90;;;;;;7403123;19;19978;-72
2023/03/02 08:24:51;;;;;;;19.50;9.18;;;2.70;99.90;;;;;;7404820;19;19918;-71
2023/03/02 08:27:20;;;;;;;26.38;11.13;;;3.10;99.90;;;;;;7403368;19;19932;-72
2023/03/02 08:29:49;;;;;;;22.88;10.35;;;2.00;99.90;;;;;;7403774;19;19938;-72
2023/03/02 08:32:18;;;;;;;28.10;13.52;;;1.90;99.90;;;;;;7402951;19;19994;-71
2023/03/02 08:34:51;;;;;;;27.80;11.52;;;3.30;99.90;;;;;;7402030;19;19930;-71
2023/03/02 08:37:20;;;;;;;23.42;10.40;;;3.40;99.90;;;;;;7406191;19;19918;-71
2023/03/02 08:39:50;;;;;;;21.80;9.45;;;3.50;99.90;;;;;;7402517;19;19918;-71
2023/03/02 08:42:19;;;;;;;21.17;9.48;;;2.10;99.90;;;;;;7402463;19;19923;-71
2023/03/02 08:44:49;;;;;;;19.65;9.65;;;2.00;99.90;;;;;;7402930;19;19935;-71
2023/03/02 08:47:17;;;;;;;21.98;9.70;;;2.20;99.90;;;;;;7402121;19;19925;-71
2023/03/02 08:49:46;;;;;;;20.98;9.50;;;2.90;99.90;;;;;;7403463;19;19990;-72
2023/03/02 08:52:18;;;;;;;19.17;10.10;;;2.10;99.90;;;;;;7405892;19;19933;-72
2023/03/02 08:54:48;;;;;;;21.02;9.35;;;3.10;99.90;;;;;;7401988;19;19926;-71
2023/03/02 08:57:17;;;;;;;19.02;8.05;;;;;;;;;;7403503;19;20252;-72
2023/03/02 08:59:46;;;;;;;19.13;9.57;;;3.60;99.90;;;;;;7402971;19;20363;-71
2023/03/02 09:02:15;;;;;;;19.45;9.20;;;2.60;99.90;;;;;;7403335;19;20009;-72
2023/03/02 09:04:44;;;;;;;18.58;8.73;;;3.10;99.90;;;;;;7403137;19;19919;-71
2023/03/02 09:07:16;;;;;;;21.02;9.43;;;3.10;99.90;;;;;;7403492;19;19970;-71
2023/03/02 09:09:47;;;;;;;21.73;9.68;;;3.70;99.90;;;;;;7402850;19;19915;-71
2023/03/02 09:12:16;;;;;;;18.70;9.27;;;3.30;99.90;;;;;;7402753;19;19919;-72
2023/03/02 09:14:45;;;;;;;19.75;10.40;;;4.20;99.90;;;;;;7401929;19;19921;-72
2023/03/02 09:17:16;;;;;;;23.00;9.98;;;3.90;99.90;;;;;;7401763;19;19918;-71
2023/03/02 09:19:45;;;;;;;16.65;9.55;;;3.50;99.90;;;;;;7403545;19;19922;-72
2023/03/02 09:22:14;;;;;;;20.83;8.60;;;3.10;99.90;;;;;;7402061;19;19918;-72
2023/03/02 09:24:43;;;;;;;16.80;8.32;;;4.30;99.90;;;;;;7402190;19;19918;-72
2023/03/02 09:27:15;;;;;;;21.08;8.52;;;2.90;99.90;;;;;;7401787;19;19941;-71
2023/03/02 09:29:44;;;;;;;18.10;9.27;;;2.60;99.90;;;;;;7400960;19;19919;-72
2023/03/02 09:32:15;;;;;;;24.08;9.90;;;3.10;99.90;;;;;;7401808;19;20321;-71
2023/03/02 09:34:44;;;;;;;18.33;8.32;;;3.30;99.90;;;;;;7403506;19;19918;-71
2023/03/02 09:37:14;;;;;;;18.65;10.20;;;4.10;99.90;;;;;;7401223;19;20555;-73
2023/03/02 09:39:43;;;;;;;21.27;9.88;;;4.20;99.90;;;;;;7401577;19;19918;-72
2023/03/02 09:42:34;;;;;;;18.77;7.70;;;3.10;99.90;;;;;;7400724;19;19914;-72
2023/03/02 09:45:19;;;;;;;20.70;9.65;;;3.20;99.90;;;;;;7405860;19;19929;-72
2023/03/02 09:47:54;;;;;;;15.65;8.13;;;4.30;99.90;;;;;;7400005;19;19919;-72
2023/03/02 09:50:32;;;;;;;16.67;7.97;;;4.40;99.90;;;;;;7401159;19;19923;-72
2023/03/02 09:53:38;;;;;;;19.67;9.57;;;4.20;99.90;;;;;;7400927;19;19923;-72
2023/03/02 09:56:14;;;;;;;;;;;3.90;99.90;;;;;;7401873;19;19943;-73
2023/03/02 09:58:51;;;;;;;18.58;8.65;;;3.80;99.90;;;;;;7400967;19;19919;-71
2023/03/02 10:01:36;;;;;;;19.25;7.70;;;4.90;99.90;;;;;;7401186;19;20317;-71
2023/03/02 10:04:16;;;;;;;17.23;8.75;;;4.50;99.90;;;;;;7400569;19;19915;-71
2023/03/02 10:06:45;;;;;;;18.48;9.68;;;4.10;99.90;;;;;;7400607;19;19940;-71
2023/03/02 10:09:15;;;;;;;18.85;9.38;;;3.90;99.90;;;;;;7401466;19;19943;-71
2023/03/02 10:12:06;;;;;;;20.02;9.55;;;3.80;99.90;;;;;;7403020;19;19926;-72
2023/03/02 10:14:43;;;;;;;19.52;9.35;;;3.70;99.90;;;;;;7399645;19;19974;-70
2023/03/02 10:17:35;;;;;;;18.20;9.20;;;3.30;99.90;;;;;;7398225;19;20316;-70
2023/03/02 10:20:06;;;;;;;18.42;9.45;;;3.90;99.90;;;;;;7400275;19;19986;-71
2023/03/02 10:22:39;;;;;;;19.33;8.93;;;4.60;99.90;;;;;;7399942;19;19910;-70
2023/03/02 10:25:19;;;;;;;20.20;8.25;;;4.70;99.90;;;;;;7399954;19;19926;-71
2023/03/02 10:27:53;;;;;;;17.17;7.82;;;4.30;99.90;;;;;;7400686;19;19974;-70
2023/03/02 10:30:31;;;;;;;16.33;6.90;;;4.20;99.90;;;;;;7399731;19;20248;-70
2023/03/02 10:33:05;;;;;;;16.10;7.13;;;4.00;99.90;;;;;;7400248;19;19915;-70
2023/03/02 10:35:49;;;;;;;15.77;7.70;;;4.20;99.90;;;;;;7398309;19;20296;-70
2023/03/02 10:38:21;;;;;;;16.48;8.40;;;3.90;99.90;;;;;;7399825;19;19919;-70
2023/03/02 10:40:55;;;;;;;16.90;8.48;;;4.30;99.90;;;;;;7399577;19;19971;-71
2023/03/02 10:43:32;;;;;;;21.08;9.50;;;3.40;99.90;;;;;;7399046;19;19915;-70
2023/03/02 10:46:06;;;;;;;16.35;8.05;;;4.50;99.90;;;;;;7398914;19;20292;-70
2023/03/02 10:48:47;;;;;;;15.93;8.57;;;4.30;99.90;;;;;;7399635;19;19915;-72
2023/03/02 10:51:24;;;;;;;16.30;7.57;;;4.30;99.90;;;;;;7399342;19;19949;-70
2023/03/02 10:54:05;;;;;;;17.38;9.32;;;4.30;99.90;;;;;;7399252;19;19918;-70
2023/03/02 10:56:35;;;;;;;16.92;8.48;;;4.40;99.90;;;;;;7398103;19;19923;-70
2023/03/02 10:59:15;;;;;;;14.80;7.45;;;3.80;99.90;;;;;;7398969;19;19911;-70
2023/03/02 11:01:46;;;;;;;14.82;8.30;;;4.70;99.90;;;;;;7400822;19;19921;-70
2023/03/02 11:04:17;;;;;;;16.17;7.10;;;5.30;99.90;;;;;;7398723;19;20253;-70
2023/03/02 11:06:46;;;;;;;16.98;8.55;;;4.30;99.90;;;;;;7402356;19;19919;-71
2023/03/02 11:09:16;;;;;;;15.80;8.18;;;3.80;99.90;;;;;;7396863;19;20328;-70
2023/03/02 11:11:53;;;;;;;14.90;8.55;;;4.40;99.90;;;;;;7398328;19;19919;-70
2023/03/02 11:14:22;;;;;;;16.10;7.25;;;5.10;99.90;;;;;;7398175;19;19925;-70
2023/03/02 11:16:56;;;;;;;16.15;7.28;;;4.50;99.90;;;;;;7396198;19;20259;-70
2023/03/02 11:19:33;;;;;;;13.82;6.82;;;4.60;99.90;;;;;;7397446;19;19929;-70
2023/03/02 11:22:26;;;;;;;15.40;7.35;;;4.50;99.90;;;;;;7398567;19;20335;-70
2023/03/02 11:24:59;;;;;;;14.15;7.47;;;5.40;99.90;;;;;;7398408;19;19926;-70
2023/03/02 11:27:31;;;;;;;17.60;8.45;;;4.20;99.90;;;;;;7400846;19;19922;-70
2023/03/02 11:30:04;;;;;;;18.10;7.63;;;4.70;99.90;;;;;;7404550;19;19922;-70
2023/03/02 11:32:44;;;;;;;16.45;8.35;;;5.50;99.90;;;;;;7404684;19;19927;-70
2023/03/02 11:35:15;;;;;;;;;;;5.60;99.90;;;;;;7408530;19;19922;-70
2023/03/02 11:37:49;;;;;;;32.33;13.10;;;5.80;99.90;;;;;;7404660;19;20174;-70
2023/03/02 11:40:25;;;;;;;41.03;18.77;;;5.50;99.90;;;;;;7404466;19;19914;-71
2023/03/02 11:42:57;;;;;;;15.10;7.45;;;5.00;99.90;;;;;;7405170;19;19940;-73
2023/03/02 11:45:28;;;;;;;14.52;7.68;;;5.00;99.90;;;;;;7397783;19;19927;-71
2023/03/02 11:48:06;;;;;;;14.13;8.32;;;5.00;99.90;;;;;;7396275;19;20353;-72
2023/03/02 11:50:39;;;;;;;14.90;6.80;;;5.00;99.90;;;;;;7406334;19;19926;-71
2023/03/02 11:53:15;;;;;;;14.77;7.05;;;5.10;99.90;;;;;;7403000;19;19922;-72
2023/03/02 11:55:48;;;;;;;13.05;6.97;;;5.10;99.90;;;;;;7403710;19;19982;-70
2023/03/02 11:58:24;;;;;;;15.43;6.85;;;5.30;99.90;;;;;;7403104;19;19926;-70
2023/03/02 12:00:55;;;;;;;12.73;6.82;;;5.20;99.90;;;;;;7404284;19;19950;-70
2023/03/02 12:03:40;;;;;;;14.10;7.53;;;5.30;99.90;;;;;;7403893;19;19923;-72
2023/03/02 12:06:26;;;;;;;13.95;6.25;;;5.40;99.90;;;;;;7402779;19;19940;-70
2023/03/02 12:09:08;;;;;;;14.15;6.85;;;5.60;99.90;;;;;;7402637;19;20301;-70
2023/03/02 12:11:40;;;;;;;14.10;6.60;;;5.50;99.90;;;;;;7404689;19;19937;-71
2023/03/02 12:14:31;;;;;;;12.50;5.95;;;5.50;99.90;;;;;;7404552;19;19930;-70
2023/03/02 12:17:08;;;;;;;12.45;6.68;;;5.90;99.90;;;;;;7402904;19;19930;-70
2023/03/02 12:19:45;;;;;;;13.00;7.28;;;5.50;99.90;;;;;;7405307;19;19927;-71
2023/03/02 12:22:14;;;;;;;13.48;6.82;;;5.50;99.90;;;;;;7405718;19;19986;-70
2023/03/02 12:24:46;;;;;;;13.48;7.00;;;5.50;99.90;;;;;;7405033;19;19922;-71
2023/03/02 12:27:27;;;;;;;15.77;7.68;;;5.40;99.90;;;;;;7405532;19;19946;-72
2023/03/02 12:30:13;;;;;;;14.45;6.93;;;5.50;99.90;;;;;;7400851;19;19933;-71
2023/03/02 12:32:47;;;;;;;13.73;7.38;;;6.60;99.90;;;;;;7386312;19;19926;-71
2023/03/02 12:35:22;;;;;;;14.02;6.95;;;5.60;99.90;;;;;;7396943;19;19986;-71
2023/03/02 12:37:55;;;;;;;14.18;6.75;;;5.50;99.90;;;;;;7403589;19;19918;-73
2023/03/02 12:41:00;;;;;;;11.85;5.85;;;5.60;99.90;;;;;;7402469;19;19919;-72
2023/03/02 12:43:33;;;;;;;12.80;7.05;;;5.60;99.90;;;;;;7402542;19;19946;-72
2023/03/02 12:46:28;;;;;;;13.30;6.72;;;5.60;99.90;;;;;;7402524;19;19948;-72
2023/03/02 12:49:16;;;;;;;13.60;6.55;;;6.10;99.90;;;;;;7403797;19;19919;-72
2023/03/02 12:52:23;;;;;;;17.38;7.25;;;5.70;99.90;;;;;;7401554;19;20572;-72
2023/03/02 12:55:18;;;;;;;;;;;6.30;99.90;;;;;;7405760;19;19938;-72
2023/03/02 12:57:49;;;;;;;;;;;6.00;99.90;;;;;;7404355;19;19926;-72
2023/03/02 13:00:21;;;;;;;10.88;6.22;;;6.10;99.90;;;;;;7403400;19;19918;-72
2023/03/02 13:02:53;;;;;;;15.13;6.85;;;6.30;99.90;;;;;;7403966;19;19933;-72
2023/03/02 13:05:24;;;;;;;12.07;6.28;;;6.40;99.90;;;;;;7401381;19;19918;-71
2023/03/02 13:08:01;;;;;;;25.25;10.10;;;7.00;99.90;;;;;;7402525;19;19939;-72
2023/03/02 13:10:36;;;;;;;15.57;6.60;;;7.00;99.90;;;;;;7402805;19;19933;-72
2023/03/02 13:13:18;;;;;;;13.10;6.57;;;7.10;99.90;;;;;;7401603;19;19933;-73